Terminal Aerodrome Forecast
Issued by NWS Twin Cities, MN

Home | Current Version | Previous Version | Text Only | Print | Product List | Glossary Off
Versions: 1 2 3 4 5 6 7 8 9 10 11 12 13 14 15 16 17 18 19

905
FTUS43 KMPX 232222 AAB
TAFSTC
TAF AMD
KSTC 232222Z 2322/2418 15012KT P6SM BKN050
     FM240500 19009KT P6SM SCT050 BKN100
     FM240800 27007KT P6SM SKC
     FM241700 28015G22KT P6SM FEW250=

USA.gov is the U.S. government's official web portal to all federal, state and local government web resources and services.